createdAt,value
2022-11-16T00:01:32.675Z,2.80
2022-11-16T00:04:01.678Z,2.55
2022-11-16T00:06:29.335Z,2.55
2022-11-16T00:09:17.715Z,2.67
2022-11-16T00:11:44.820Z,2.65
2022-11-16T00:14:12.364Z,2.22
2022-11-16T00:16:39.467Z,2.72
2022-11-16T00:19:07.414Z,2.60
2022-11-16T00:21:35.305Z,2.30
2022-11-16T00:24:03.134Z,2.53
2022-11-16T00:26:30.757Z,2.20
2022-11-16T00:28:58.268Z,2.42
2022-11-16T00:31:25.366Z,2.30
2022-11-16T00:33:52.479Z,2.50
2022-11-16T00:36:19.623Z,2.22
2022-11-16T00:38:46.648Z,2.30
2022-11-16T00:41:14.169Z,2.38
2022-11-16T00:43:41.519Z,2.20
2022-11-16T00:46:09.892Z,2.40
2022-11-16T00:48:37.142Z,2.30
2022-11-16T00:51:04.443Z,2.20
2022-11-16T00:53:31.749Z,2.30
2022-11-16T00:55:58.864Z,2.10
2022-11-16T00:58:25.842Z,2.42
2022-11-16T01:00:52.889Z,2.38
2022-11-16T01:03:20.017Z,2.40
2022-11-16T01:05:47.097Z,2.38
2022-11-16T01:08:14.031Z,2.08
2022-11-16T01:10:42.262Z,2.20
2022-11-16T01:13:11.365Z,2.28
2022-11-16T01:15:38.333Z,2.03
2022-11-16T01:18:05.532Z,2.13
2022-11-16T01:20:32.452Z,2.38
2022-11-16T01:22:59.332Z,2.10
2022-11-16T01:25:26.179Z,1.85
2022-11-16T01:27:53.011Z,2.10
2022-11-16T01:30:20.322Z,1.98
2022-11-16T01:32:47.305Z,2.10
2022-11-16T01:35:19.229Z,2.13
2022-11-16T01:37:46.243Z,2.13
2022-11-16T01:40:14.689Z,1.90
2022-11-16T01:42:42.301Z,1.77
2022-11-16T01:45:41.457Z,1.73
2022-11-16T01:48:11.692Z,1.75
2022-11-16T01:50:39.288Z,1.87
2022-11-16T01:53:09.309Z,1.55
2022-11-16T01:55:38.018Z,1.63
2022-11-16T01:58:06.354Z,1.40
2022-11-16T02:00:33.467Z,1.40
2022-11-16T02:03:00.346Z,1.50
2022-11-16T02:05:41.515Z,1.70
2022-11-16T02:11:02.092Z,1.23
2022-11-16T02:14:13.064Z,1.20
2022-11-16T02:17:05.818Z,1.20
2022-11-16T02:19:51.099Z,1.13
2022-11-16T02:22:47.122Z,1.05
2022-11-16T02:25:35.279Z,1.00
2022-11-16T02:28:25.681Z,1.08
2022-11-16T02:30:55.877Z,0.77
2022-11-16T02:33:28.487Z,0.93
2022-11-16T02:36:00.657Z,1.05
2022-11-16T02:38:32.439Z,0.80
2022-11-16T02:41:07.514Z,1.00
2022-11-16T02:43:47.997Z,0.80
2022-11-16T02:46:29.552Z,0.88
2022-11-16T02:49:00.406Z,0.90
2022-11-16T02:51:28.694Z,0.77
2022-11-16T02:54:01.029Z,0.90
2022-11-16T02:56:29.542Z,0.70
2022-11-16T02:59:00.018Z,0.80
2022-11-16T03:01:37.047Z,1.00
2022-11-16T03:04:12.459Z,0.60
2022-11-16T03:06:41.820Z,0.70
2022-11-16T03:09:16.015Z,0.80
2022-11-16T03:11:59.729Z,0.70
2022-11-16T03:14:36.398Z,1.00
2022-11-16T03:17:08.401Z,0.50
2022-11-16T03:19:55.021Z,0.73
2022-11-16T03:22:31.248Z,0.63
2022-11-16T03:24:58.810Z,0.70
2022-11-16T03:27:54.664Z,0.65
2022-11-16T03:30:25.938Z,0.70
2022-11-16T03:33:04.358Z,0.60
2022-11-16T03:35:39.201Z,0.60
2022-11-16T03:38:08.089Z,0.60
2022-11-16T03:40:36.757Z,0.68
2022-11-16T03:43:06.666Z,0.68
2022-11-16T03:45:33.957Z,0.80
2022-11-16T03:48:01.056Z,0.55
2022-11-16T03:50:28.070Z,0.75
2022-11-16T03:52:54.917Z,0.75
2022-11-16T03:55:21.848Z,0.68
2022-11-16T03:57:48.700Z,0.80
2022-11-16T04:00:15.938Z,0.80
2022-11-16T04:02:42.777Z,0.60
2022-11-16T04:05:28.561Z,0.60
2022-11-16T04:08:14.035Z,0.60
2022-11-16T04:10:59.335Z,0.70
2022-11-16T04:13:50.759Z,0.47
2022-11-16T04:16:36.385Z,0.55
2022-11-16T04:19:22.030Z,0.57
2022-11-16T04:22:15.799Z,0.60
2022-11-16T04:24:46.330Z,0.60
2022-11-16T04:27:34.773Z,0.70
2022-11-16T04:30:03.847Z,0.65
2022-11-16T04:32:49.557Z,0.47
2022-11-16T04:35:35.195Z,0.50
2022-11-16T04:38:02.066Z,0.50
2022-11-16T04:40:29.751Z,0.40
2022-11-16T04:43:02.263Z,0.57
2022-11-16T04:45:48.176Z,0.50
2022-11-16T04:48:17.456Z,0.60
2022-11-16T04:50:45.487Z,0.70
2022-11-16T04:53:13.406Z,0.60
2022-11-16T04:55:40.325Z,0.60
2022-11-16T04:58:07.274Z,0.68
2022-11-16T05:00:34.318Z,0.50
2022-11-16T05:03:02.066Z,0.63
2022-11-16T05:05:29.707Z,0.60
2022-11-16T05:07:56.786Z,0.70
2022-11-16T05:10:23.683Z,0.52
2022-11-16T05:12:50.614Z,0.63
2022-11-16T05:15:20.015Z,0.63
2022-11-16T05:17:47.589Z,0.50
2022-11-16T05:20:33.234Z,0.70
2022-11-16T05:23:00.358Z,0.57
2022-11-16T05:25:28.547Z,0.73
2022-11-16T05:27:58.158Z,0.63
2022-11-16T05:30:25.050Z,0.70
2022-11-16T05:32:51.934Z,0.60
2022-11-16T05:35:18.832Z,0.57
2022-11-16T05:37:45.803Z,0.60
2022-11-16T05:40:12.987Z,0.90
2022-11-16T05:42:39.911Z,0.50
2022-11-16T05:45:07.210Z,0.60
2022-11-16T05:47:34.137Z,0.70
2022-11-16T05:50:01.103Z,0.73
2022-11-16T05:52:28.137Z,0.88
2022-11-16T05:54:54.985Z,0.63
2022-11-16T05:57:21.893Z,0.60
2022-11-16T05:59:48.731Z,1.10
2022-11-16T06:02:15.662Z,2.88
2022-11-16T06:04:42.510Z,4.82
2022-11-16T06:07:09.607Z,6.57
2022-11-16T06:09:36.641Z,4.32
2022-11-16T06:12:03.760Z,2.97
2022-11-16T06:14:30.683Z,2.50
2022-11-16T06:16:57.678Z,1.83
2022-11-16T06:19:29.566Z,2.17
2022-11-16T06:21:59.055Z,2.58
2022-11-16T06:24:26.146Z,5.78
2022-11-16T06:26:53.160Z,5.38
2022-11-16T06:29:20.261Z,4.30
2022-11-16T06:31:47.206Z,4.70
2022-11-16T06:34:14.273Z,4.22
2022-11-16T06:36:41.257Z,4.13
2022-11-16T06:39:08.235Z,3.30
2022-11-16T06:41:40.208Z,3.33
2022-11-16T06:44:08.251Z,2.42
2022-11-16T06:46:35.210Z,2.15
2022-11-16T06:49:02.169Z,2.40
2022-11-16T06:51:28.960Z,2.35
2022-11-16T06:53:55.895Z,2.25
2022-11-16T06:56:22.870Z,1.95
2022-11-16T06:58:53.193Z,1.83
2022-11-16T07:01:20.545Z,1.38
2022-11-16T07:03:47.564Z,1.58
2022-11-16T07:06:14.852Z,1.48
2022-11-16T07:08:41.935Z,1.70
2022-11-16T07:11:10.759Z,1.67
2022-11-16T07:13:38.770Z,1.60
2022-11-16T07:16:11.465Z,1.45
2022-11-16T07:18:40.775Z,1.63
2022-11-16T07:21:16.950Z,1.40
2022-11-16T07:23:43.952Z,1.20
2022-11-16T07:26:11.277Z,1.10
2022-11-16T07:28:42.075Z,1.40
2022-11-16T07:31:14.120Z,1.30
2022-11-16T07:33:41.275Z,1.60
2022-11-16T07:36:15.294Z,1.40
2022-11-16T07:38:42.244Z,1.27
2022-11-16T07:41:20.014Z,1.27
2022-11-16T07:43:52.801Z,1.48
2022-11-16T07:49:13.687Z,1.00
2022-11-16T07:51:40.690Z,1.10
2022-11-16T07:54:07.722Z,1.00
2022-11-16T07:56:34.716Z,1.17
2022-11-16T07:59:01.871Z,1.00
2022-11-16T08:01:28.832Z,0.73
2022-11-16T08:03:56.194Z,0.90
2022-11-16T08:06:28.685Z,0.88
2022-11-16T08:08:58.585Z,1.02
2022-11-16T08:11:26.843Z,0.80
2022-11-16T08:13:54.622Z,0.70
2022-11-16T08:16:23.408Z,0.85
2022-11-16T08:18:50.566Z,0.90
2022-11-16T08:21:19.556Z,0.70
2022-11-16T08:23:47.055Z,0.80
2022-11-16T08:26:17.205Z,0.73
2022-11-16T08:28:46.204Z,0.60
2022-11-16T08:31:16.014Z,0.82
2022-11-16T08:33:43.265Z,0.98
2022-11-16T08:36:14.384Z,0.70
2022-11-16T08:38:41.581Z,0.80
2022-11-16T08:41:09.114Z,0.68
2022-11-16T08:43:36.315Z,0.65
2022-11-16T08:46:03.551Z,0.68
2022-11-16T08:48:34.968Z,0.80
2022-11-16T08:51:17.354Z,0.70
2022-11-16T08:53:45.550Z,0.63
2022-11-16T08:56:13.900Z,0.70
2022-11-16T08:58:47.588Z,0.93
2022-11-16T09:01:17.628Z,0.80
2022-11-16T09:03:45.287Z,0.82
2022-11-16T09:06:12.984Z,0.70
2022-11-16T09:08:42.290Z,0.68
2022-11-16T09:11:12.105Z,0.70
2022-11-16T09:13:39.383Z,0.70
2022-11-16T09:16:06.702Z,0.75
2022-11-16T09:18:33.993Z,0.50
2022-11-16T09:21:01.184Z,0.60
2022-11-16T09:23:28.984Z,0.77
2022-11-16T09:25:56.125Z,0.90
2022-11-16T09:28:23.296Z,0.80
2022-11-16T09:30:52.086Z,0.60
2022-11-16T09:33:19.281Z,0.70
2022-11-16T09:35:47.457Z,0.80
2022-11-16T09:38:19.760Z,0.50
2022-11-16T09:40:54.050Z,0.77
2022-11-16T09:43:30.345Z,0.70
2022-11-16T09:46:25.060Z,0.63
2022-11-16T09:48:54.514Z,0.60
2022-11-16T09:51:24.815Z,0.65
2022-11-16T09:53:59.058Z,0.77
2022-11-16T09:56:28.789Z,0.70
2022-11-16T09:59:04.883Z,0.70
2022-11-16T10:01:43.546Z,0.85
2022-11-16T10:04:44.161Z,0.60
2022-11-16T10:07:23.010Z,0.53
2022-11-16T10:09:50.574Z,0.70
2022-11-16T10:12:24.267Z,0.55
2022-11-16T10:15:04.975Z,0.60
2022-11-16T10:17:50.073Z,0.60
2022-11-16T10:20:51.846Z,0.70
2022-11-16T10:23:44.813Z,0.50
2022-11-16T10:26:20.591Z,0.52
2022-11-16T10:29:14.426Z,0.68
2022-11-16T10:31:59.769Z,0.57
2022-11-16T10:34:30.719Z,0.40
2022-11-16T10:37:07.284Z,0.38
2022-11-16T10:39:37.190Z,0.60
2022-11-16T10:42:10.737Z,0.50
2022-11-16T10:44:56.650Z,0.43
2022-11-16T10:47:37.180Z,0.43
2022-11-16T10:50:25.827Z,0.50
2022-11-16T10:52:52.880Z,0.40
2022-11-16T10:55:22.204Z,0.47
2022-11-16T10:58:01.876Z,0.50
2022-11-16T11:00:42.035Z,0.50
2022-11-16T11:03:11.210Z,0.52
2022-11-16T11:05:48.563Z,0.57
2022-11-16T11:08:31.086Z,0.50
2022-11-16T11:11:02.146Z,0.50
2022-11-16T11:13:29.552Z,0.60
2022-11-16T11:16:16.639Z,0.50
2022-11-16T11:18:43.907Z,0.60
2022-11-16T11:21:29.025Z,0.55
2022-11-16T11:24:16.384Z,0.60
2022-11-16T11:26:53.681Z,0.60
2022-11-16T11:29:23.420Z,0.70
2022-11-16T11:31:54.390Z,0.60
2022-11-16T11:34:28.018Z,0.73
2022-11-16T11:37:11.731Z,0.55
2022-11-16T11:39:38.852Z,0.43
2022-11-16T11:42:13.706Z,0.57
2022-11-16T11:44:54.977Z,0.40
2022-11-16T11:50:16.954Z,0.65
2022-11-16T11:52:47.419Z,0.45
2022-11-16T11:55:18.475Z,0.70
2022-11-16T11:57:47.993Z,0.68
2022-11-16T12:00:16.257Z,0.55
2022-11-16T12:02:58.191Z,0.57
2022-11-16T12:05:44.079Z,0.63
2022-11-16T12:08:28.175Z,0.70
2022-11-16T12:11:09.540Z,0.57
2022-11-16T12:14:16.050Z,0.60
2022-11-16T12:16:51.894Z,0.57
2022-11-16T12:19:19.103Z,0.68
2022-11-16T12:22:37.134Z,0.82
2022-11-16T12:25:19.491Z,0.50
2022-11-16T12:28:24.634Z,0.68
2022-11-16T12:31:22.336Z,0.70
2022-11-16T12:33:49.213Z,0.60
2022-11-16T12:36:19.194Z,0.60
2022-11-16T12:38:46.208Z,0.50
2022-11-16T12:41:22.453Z,0.80
2022-11-16T12:44:03.264Z,0.60
2022-11-16T12:46:47.201Z,0.60
2022-11-16T12:49:29.596Z,0.50
2022-11-16T12:52:15.229Z,0.60
2022-11-16T12:55:24.864Z,0.55
2022-11-16T12:58:03.223Z,0.57
2022-11-16T13:00:41.500Z,0.65
2022-11-16T13:03:15.263Z,0.60
2022-11-16T13:06:03.202Z,0.52
2022-11-16T13:08:56.586Z,0.60
2022-11-16T13:11:25.874Z,0.60
2022-11-16T13:13:58.408Z,0.65
2022-11-16T13:16:27.168Z,0.77
2022-11-16T13:18:55.373Z,0.50
2022-11-16T13:21:34.364Z,0.63
2022-11-16T13:24:25.978Z,0.60
2022-11-16T13:27:17.320Z,0.75
2022-11-16T13:32:57.991Z,0.60
2022-11-16T13:35:25.289Z,0.60
2022-11-16T13:37:55.324Z,0.63
2022-11-16T13:40:25.056Z,0.55
2022-11-16T13:43:05.437Z,0.70
2022-11-16T13:45:58.018Z,0.70
2022-11-16T13:48:27.759Z,0.60
2022-11-16T13:50:57.561Z,0.50
2022-11-16T13:56:19.125Z,0.60
2022-11-16T13:58:55.619Z,0.70
2022-11-16T14:01:24.146Z,0.70
2022-11-16T14:03:52.966Z,0.50
2022-11-16T14:06:19.954Z,0.60
2022-11-16T14:08:48.594Z,0.70
2022-11-16T14:11:40.353Z,0.50
2022-11-16T14:14:34.275Z,0.43
2022-11-16T14:17:01.225Z,0.73
2022-11-16T14:19:49.665Z,0.47
2022-11-16T14:22:50.039Z,0.70
2022-11-16T14:25:49.276Z,0.75
2022-11-16T14:28:52.740Z,0.63
2022-11-16T14:31:30.068Z,0.60
2022-11-16T14:33:59.775Z,0.60
2022-11-16T14:36:53.364Z,0.75
2022-11-16T14:39:37.774Z,0.77
2022-11-16T14:42:15.468Z,0.60
2022-11-16T14:44:43.823Z,0.65
2022-11-16T14:47:20.821Z,0.60
2022-11-16T14:49:48.702Z,0.95
2022-11-16T14:52:18.429Z,0.60
2022-11-16T14:54:55.519Z,0.45
2022-11-16T14:57:24.306Z,0.60
2022-11-16T15:00:11.163Z,0.60
2022-11-16T15:02:40.562Z,0.40
2022-11-16T15:05:08.477Z,0.50
2022-11-16T15:07:35.867Z,0.50
2022-11-16T15:10:03.234Z,0.50
2022-11-16T15:12:42.094Z,0.60
2022-11-16T15:15:17.439Z,0.52
2022-11-16T15:17:47.377Z,0.35
2022-11-16T15:20:24.313Z,0.50
2022-11-16T15:22:53.341Z,0.45
2022-11-16T15:25:33.906Z,0.77
2022-11-16T15:28:13.887Z,0.50
2022-11-16T15:30:41.429Z,0.50
2022-11-16T15:33:17.320Z,0.50
2022-11-16T15:35:44.567Z,0.40
2022-11-16T15:38:22.488Z,0.40
2022-11-16T15:41:10.710Z,0.40
2022-11-16T15:44:11.813Z,0.40
2022-11-16T15:46:36.095Z,0.45
2022-11-16T15:49:03.457Z,0.60
2022-11-16T15:51:34.549Z,0.40
2022-11-16T15:54:26.850Z,0.50
2022-11-16T15:56:57.045Z,0.40
2022-11-16T15:59:34.894Z,0.93
2022-11-16T16:02:03.634Z,0.47
2022-11-16T16:04:30.777Z,0.40
2022-11-16T16:06:59.495Z,0.50
2022-11-16T16:09:32.498Z,0.50
2022-11-16T16:12:22.775Z,0.50
2022-11-16T16:14:51.785Z,0.45
2022-11-16T16:17:24.808Z,0.32
2022-11-16T16:20:03.033Z,0.55
2022-11-16T16:22:33.231Z,0.50
2022-11-16T16:25:02.027Z,0.40
2022-11-16T16:27:31.183Z,0.40
2022-11-16T16:30:02.666Z,0.50
2022-11-16T16:32:31.083Z,0.65
2022-11-16T16:35:03.727Z,0.40
2022-11-16T16:37:32.995Z,0.40
2022-11-16T16:40:00.707Z,0.30
2022-11-16T16:42:28.086Z,0.40
2022-11-16T16:44:55.217Z,0.50
2022-11-16T16:47:22.482Z,0.50
2022-11-16T16:49:49.981Z,0.52
2022-11-16T16:52:18.015Z,0.40
2022-11-16T16:54:45.428Z,0.50
2022-11-16T16:57:17.803Z,0.40
2022-11-16T16:59:46.212Z,0.40
2022-11-16T17:02:13.537Z,1.35
2022-11-16T17:04:41.009Z,1.00
2022-11-16T17:07:07.917Z,0.80
2022-11-16T17:09:35.199Z,1.23
2022-11-16T17:12:02.191Z,1.30
2022-11-16T17:14:29.385Z,1.35
2022-11-16T17:16:56.356Z,1.13
2022-11-16T17:19:23.326Z,1.38
2022-11-16T17:21:51.879Z,1.30
2022-11-16T17:24:19.186Z,1.00
2022-11-16T17:26:48.653Z,0.70
2022-11-16T17:29:15.941Z,0.70
2022-11-16T17:31:43.824Z,0.82
2022-11-16T17:34:13.847Z,0.88
2022-11-16T17:36:42.178Z,0.70
2022-11-16T17:39:09.930Z,0.60
2022-11-16T17:41:37.296Z,0.85
2022-11-16T17:44:05.359Z,1.10
2022-11-16T17:46:32.666Z,0.77
2022-11-16T17:48:59.957Z,1.50
2022-11-16T17:51:28.256Z,1.58
2022-11-16T17:53:55.202Z,1.48
2022-11-16T17:56:29.110Z,1.45
2022-11-16T17:58:58.616Z,1.30
2022-11-16T18:01:26.541Z,1.55
2022-11-16T18:03:53.672Z,1.23
2022-11-16T18:06:23.072Z,1.23
2022-11-16T18:08:50.105Z,1.40
2022-11-16T18:11:21.460Z,1.20
2022-11-16T18:13:52.821Z,1.15
2022-11-16T18:16:22.045Z,1.48
2022-11-16T18:18:49.750Z,3.00
2022-11-16T18:21:20.762Z,2.28
2022-11-16T18:23:48.459Z,3.38
2022-11-16T18:26:18.117Z,4.18
2022-11-16T18:28:46.020Z,2.45
2022-11-16T18:31:15.918Z,2.80
2022-11-16T18:33:43.521Z,3.00
2022-11-16T18:36:11.669Z,2.67
2022-11-16T18:38:39.237Z,2.45
2022-11-16T18:41:12.635Z,3.30
2022-11-16T18:43:59.189Z,2.83
2022-11-16T18:46:31.905Z,2.47
2022-11-16T18:49:00.419Z,2.35
2022-11-16T18:51:29.051Z,2.30
2022-11-16T18:53:56.600Z,2.53
2022-11-16T18:56:24.632Z,2.55
2022-11-16T18:58:52.919Z,2.42
2022-11-16T19:01:25.673Z,2.30
2022-11-16T19:03:54.254Z,2.20
2022-11-16T19:06:22.787Z,1.85
2022-11-16T19:09:04.288Z,2.20
2022-11-16T19:11:31.334Z,1.90
2022-11-16T19:14:07.922Z,1.80
2022-11-16T19:16:35.283Z,2.20
2022-11-16T19:19:03.188Z,1.67
2022-11-16T19:21:32.172Z,2.72
2022-11-16T19:24:01.161Z,4.65
2022-11-16T19:26:29.082Z,4.05
2022-11-16T19:28:56.686Z,3.45
2022-11-16T19:31:29.748Z,3.50
2022-11-16T19:33:59.346Z,2.75
2022-11-16T19:36:28.121Z,2.67
2022-11-16T19:38:55.782Z,2.92
2022-11-16T19:41:23.473Z,2.30
2022-11-16T19:43:53.025Z,2.10
2022-11-16T19:46:21.892Z,2.55
2022-11-16T19:48:49.963Z,2.13
2022-11-16T19:51:20.821Z,2.50
2022-11-16T19:53:49.355Z,2.30
2022-11-16T19:56:18.808Z,1.95
2022-11-16T19:58:46.354Z,2.35
2022-11-16T20:01:16.271Z,2.55
2022-11-16T20:03:45.263Z,3.10
2022-11-16T20:06:15.672Z,2.95
2022-11-16T20:08:47.676Z,2.65
2022-11-16T20:11:21.070Z,2.42
2022-11-16T20:13:50.040Z,2.20
2022-11-16T20:16:19.979Z,2.10
2022-11-16T20:18:48.051Z,1.90
2022-11-16T20:21:36.044Z,2.17
2022-11-16T20:24:07.003Z,1.85
2022-11-16T20:29:07.172Z,2.13
2022-11-16T20:31:36.374Z,1.80
2022-11-16T20:34:08.455Z,2.28
2022-11-16T20:36:38.797Z,2.00
2022-11-16T20:39:08.259Z,2.33
2022-11-16T20:41:35.946Z,1.77
2022-11-16T20:44:03.918Z,1.85
2022-11-16T20:46:37.548Z,2.00
2022-11-16T20:49:08.322Z,1.88
2022-11-16T20:51:35.639Z,2.00
2022-11-16T20:54:03.390Z,1.67
2022-11-16T20:56:31.345Z,1.48
2022-11-16T20:58:58.680Z,2.03
2022-11-16T21:01:34.743Z,1.80
2022-11-16T21:04:04.704Z,1.90
2022-11-16T21:06:33.161Z,2.45
2022-11-16T21:09:01.218Z,1.92
2022-11-16T21:11:32.782Z,1.98
2022-11-16T21:14:18.276Z,1.95
2022-11-16T21:16:45.810Z,1.60
2022-11-16T21:19:14.342Z,1.60
2022-11-16T21:21:41.977Z,1.85
2022-11-16T21:24:12.685Z,1.80
2022-11-16T21:26:39.950Z,1.70
2022-11-16T21:29:10.912Z,2.13
2022-11-16T21:31:39.772Z,1.90
2022-11-16T21:34:08.568Z,1.42
2022-11-16T21:36:36.786Z,1.75
2022-11-16T21:39:04.426Z,1.55
2022-11-16T21:41:32.227Z,1.45
2022-11-16T21:44:01.013Z,1.75
2022-11-16T21:46:28.361Z,1.48
2022-11-16T21:48:57.391Z,1.75
2022-11-16T21:51:26.890Z,1.90
2022-11-16T21:53:54.878Z,1.70
2022-11-16T21:56:24.222Z,1.63
2022-11-16T21:58:53.275Z,1.77
2022-11-16T22:01:25.385Z,1.65
2022-11-16T22:04:10.829Z,1.70
2022-11-16T22:06:56.476Z,1.60
2022-11-16T22:09:24.041Z,1.63
2022-11-16T22:11:51.075Z,1.90
2022-11-16T22:14:18.234Z,1.70
2022-11-16T22:16:45.315Z,2.25
2022-11-16T22:19:13.330Z,1.75
2022-11-16T22:21:40.600Z,2.00
2022-11-16T22:24:08.472Z,2.05
2022-11-16T22:26:35.926Z,2.28
2022-11-16T22:29:02.917Z,2.10
2022-11-16T22:31:30.208Z,2.40
2022-11-16T22:33:57.406Z,1.92
2022-11-16T22:36:24.770Z,2.35
2022-11-16T22:38:52.103Z,2.30
2022-11-16T22:41:20.595Z,2.20
2022-11-16T22:43:47.813Z,2.10
2022-11-16T22:46:15.198Z,2.08
2022-11-16T22:48:44.025Z,2.08
2022-11-16T22:51:28.689Z,2.17
2022-11-16T22:53:57.996Z,1.98
2022-11-16T22:56:25.705Z,2.10
2022-11-16T22:58:53.582Z,2.33
2022-11-16T23:01:21.647Z,2.13
2022-11-16T23:03:49.219Z,2.25
2022-11-16T23:06:16.806Z,2.20
2022-11-16T23:08:44.763Z,2.25
2022-11-16T23:11:34.938Z,2.38
2022-11-16T23:14:22.083Z,2.08
2022-11-16T23:16:50.175Z,2.50
2022-11-16T23:19:38.281Z,2.30
2022-11-16T23:22:24.781Z,2.47
2022-11-16T23:25:11.423Z,2.47
2022-11-16T23:27:50.988Z,2.38
2022-11-16T23:30:18.813Z,2.50
2022-11-16T23:32:46.919Z,2.60
2022-11-16T23:35:14.809Z,2.63
2022-11-16T23:38:06.534Z,2.55
2022-11-16T23:40:39.851Z,2.58
2022-11-16T23:43:29.243Z,2.63
2022-11-16T23:45:57.138Z,2.58
2022-11-16T23:48:24.212Z,2.83
2022-11-16T23:50:51.430Z,2.72
2022-11-16T23:53:18.704Z,2.65
2022-11-16T23:55:45.855Z,2.67
2022-11-16T23:58:14.980Z,2.75
